Wheatland, North Dakota
Current Conditions -  °F | °C
As of 5:53 PM on Saturday 25 Oct 2014 (Local Time) from KFAR Reporting Station
Clear Clear  
Wind Chill: 56°   Ceiling: Unl
Heat Index: 56°   Visibility: 10mi
Dew Point: 26°   Wind: 5mph
Humidity: 32%   Direction: 320°NW
Pressure: 30.06"   Gusts: NA
Location:  46.91°N, 97.34°W
Report Text: KFAR 252253Z AUTO 32004KT 10SM CLR 13/M03 A3006 RMK AO2 SLP186 T01331033 TSNO $
Loading
Personal Weather Stations






























Interactive Weather Map New forecast layout! Learn more

10-Day Weather Forecast

Advertisements
Track Severe Weather on mobile